createdAt,value
2022-09-07T00:04:34.401Z,16.91
2022-09-07T00:09:37.727Z,16.84
2022-09-07T00:14:42.191Z,16.88
2022-09-07T00:19:45.355Z,16.99
2022-09-07T00:24:48.569Z,16.97
2022-09-07T00:29:53.070Z,16.87
2022-09-07T00:34:56.039Z,16.87
2022-09-07T00:39:59.011Z,16.80
2022-09-07T00:45:10.255Z,16.81
2022-09-07T00:50:20.186Z,16.67
2022-09-07T00:55:23.682Z,16.72
2022-09-07T01:00:28.466Z,16.71
2022-09-07T01:05:35.739Z,16.73
2022-09-07T01:10:39.519Z,16.74
2022-09-07T01:15:50.992Z,16.74
2022-09-07T01:21:18.047Z,16.75
2022-09-07T01:26:43.785Z,16.85
2022-09-07T01:32:01.471Z,16.88
2022-09-07T01:37:14.111Z,17.01
2022-09-07T01:42:22.067Z,17.10
2022-09-07T01:47:32.573Z,17.13
2022-09-07T01:52:42.474Z,17.11
2022-09-07T01:57:52.541Z,17.08
2022-09-07T02:03:02.458Z,17.05
2022-09-07T02:08:11.779Z,17.08
2022-09-07T02:13:19.561Z,16.98
2022-09-07T02:18:26.991Z,16.94
2022-09-07T02:23:34.378Z,17.01
2022-09-07T02:28:38.920Z,16.91
2022-09-07T02:33:44.463Z,17.02
2022-09-07T02:38:47.753Z,17.06
2022-09-07T02:43:50.746Z,17.12
2022-09-07T02:49:02.285Z,17.18
2022-09-07T02:54:17.843Z,17.14
2022-09-07T02:59:41.829Z,17.05
2022-09-07T03:04:52.233Z,17.11
2022-09-07T03:09:58.441Z,17.10
2022-09-07T03:15:01.446Z,17.02
2022-09-07T03:20:06.580Z,17.01
2022-09-07T03:25:10.599Z,17.09
2022-09-07T03:30:14.798Z,17.10
2022-09-07T03:35:19.633Z,17.10
2022-09-07T03:40:22.778Z,16.97
2022-09-07T03:45:25.832Z,16.90
2022-09-07T03:50:30.369Z,16.80
2022-09-07T03:55:33.342Z,16.76
2022-09-07T04:00:36.509Z,16.78
2022-09-07T04:05:41.102Z,16.74
2022-09-07T04:10:44.407Z,16.73
2022-09-07T04:15:50.939Z,16.62
2022-09-07T04:21:00.028Z,16.74
2022-09-07T04:26:03.024Z,16.72
2022-09-07T04:31:06.273Z,16.66
2022-09-07T04:36:12.240Z,16.63
2022-09-07T04:41:16.913Z,16.60
2022-09-07T04:46:22.950Z,16.61
2022-09-07T04:51:29.123Z,16.63
2022-09-07T04:56:32.898Z,16.64
2022-09-07T05:01:35.992Z,16.58
2022-09-07T05:06:40.557Z,16.52
2022-09-07T05:11:43.516Z,16.53
2022-09-07T05:16:46.551Z,16.56
2022-09-07T05:21:51.023Z,16.63
2022-09-07T05:26:54.552Z,16.62
2022-09-07T05:31:58.030Z,16.63
2022-09-07T05:37:03.149Z,16.59
2022-09-07T05:42:06.477Z,16.57
2022-09-07T05:47:09.637Z,16.56
2022-09-07T05:52:14.493Z,16.53
2022-09-07T05:57:17.445Z,16.50
2022-09-07T06:02:20.721Z,16.48
2022-09-07T06:07:25.387Z,16.48
2022-09-07T06:12:28.499Z,16.54
2022-09-07T06:17:31.737Z,16.57
2022-09-07T06:22:37.827Z,16.59
2022-09-07T06:27:40.778Z,16.66
2022-09-07T06:32:44.158Z,16.69
2022-09-07T06:37:49.082Z,16.70
2022-09-07T06:42:52.117Z,16.75
2022-09-07T06:47:55.674Z,16.75
2022-09-07T06:58:24.805Z,16.93
2022-09-07T07:03:29.663Z,17.00
2022-09-07T07:08:34.491Z,16.99
2022-09-07T07:13:38.594Z,17.24
2022-09-07T07:18:42.734Z,17.42
2022-09-07T07:23:51.091Z,17.57
2022-09-07T07:29:03.897Z,18.03
2022-09-07T07:34:07.531Z,18.09
2022-09-07T07:44:35.126Z,18.31
2022-09-07T07:49:38.436Z,18.31
2022-09-07T07:54:43.610Z,18.55
2022-09-07T07:59:46.982Z,18.51
2022-09-07T08:04:50.252Z,18.69
2022-09-07T08:09:54.729Z,18.58
2022-09-07T08:14:57.963Z,18.71
2022-09-07T08:20:00.918Z,19.08
2022-09-07T08:25:07.063Z,19.22
2022-09-07T08:30:11.483Z,19.34
2022-09-07T08:35:14.528Z,19.44
2022-09-07T08:40:20.706Z,19.75
2022-09-07T08:45:30.102Z,19.97
2022-09-07T08:50:39.780Z,20.18
2022-09-07T08:55:52.426Z,20.29
2022-09-07T09:01:30.708Z,20.63
2022-09-07T09:06:28.799Z,20.58
2022-09-07T09:11:44.861Z,20.83
2022-09-07T09:16:53.025Z,21.17
2022-09-07T09:22:08.785Z,21.47
2022-09-07T09:27:13.399Z,21.52
2022-09-07T09:32:33.448Z,21.67
2022-09-07T09:37:37.762Z,21.93
2022-09-07T09:42:42.067Z,22.28
2022-09-07T09:47:50.745Z,22.50
2022-09-07T09:52:55.530Z,22.75
2022-09-07T10:08:57.748Z,23.45
2022-09-07T10:14:02.079Z,23.57
2022-09-07T10:19:05.033Z,23.63
2022-09-07T10:24:16.820Z,23.81
2022-09-07T10:29:28.786Z,23.68
2022-09-07T10:34:40.795Z,23.84
2022-09-07T10:39:51.171Z,24.02
2022-09-07T10:45:06.224Z,24.31
2022-09-07T10:50:29.218Z,24.85
2022-09-07T10:55:35.162Z,24.94
2022-09-07T11:00:51.516Z,25.15
2022-09-07T11:06:14.434Z,25.11
2022-09-07T11:12:00.624Z,25.29
2022-09-07T11:16:54.326Z,25.49
2022-09-07T11:22:02.133Z,25.64
2022-09-07T11:27:12.321Z,25.63
2022-09-07T11:32:22.315Z,25.90
2022-09-07T11:37:31.581Z,25.97
2022-09-07T11:42:43.829Z,26.01
2022-09-07T11:47:52.920Z,25.85
2022-09-07T11:53:01.888Z,25.95
2022-09-07T11:58:23.619Z,26.02
2022-09-07T12:03:55.219Z,25.90
2022-09-07T12:09:12.051Z,26.18
2022-09-07T12:14:29.224Z,26.52
2022-09-07T12:19:33.614Z,26.79
2022-09-07T12:24:43.585Z,26.63
2022-09-07T12:29:47.283Z,26.76
2022-09-07T12:34:58.000Z,26.70
2022-09-07T12:40:34.263Z,26.87
2022-09-07T12:45:52.786Z,27.03
2022-09-07T12:51:03.726Z,26.76
2022-09-07T12:56:24.892Z,26.88
2022-09-07T13:01:37.649Z,26.83
2022-09-07T13:07:07.560Z,27.02
2022-09-07T13:17:58.310Z,27.29
2022-09-07T13:23:25.072Z,27.46
2022-09-07T13:28:51.984Z,27.22
2022-09-07T13:33:55.585Z,27.33
2022-09-07T13:39:00.319Z,27.37
2022-09-07T13:44:04.927Z,27.52
2022-09-07T13:49:18.720Z,27.14
2022-09-07T13:54:30.056Z,27.25
2022-09-07T13:59:36.281Z,27.10
2022-09-07T14:04:44.337Z,26.87
2022-09-07T14:09:48.930Z,26.92
2022-09-07T14:15:10.607Z,27.35
2022-09-07T14:20:16.051Z,27.27
2022-09-07T14:25:22.225Z,27.17
2022-09-07T14:30:29.074Z,27.25
2022-09-07T14:35:34.950Z,27.38
2022-09-07T14:40:39.535Z,27.26
2022-09-07T14:45:43.996Z,26.94
2022-09-07T14:51:00.990Z,26.95
2022-09-07T14:56:21.057Z,27.23
2022-09-07T15:01:41.293Z,27.31
2022-09-07T15:07:02.231Z,27.10
2022-09-07T15:12:18.564Z,27.01
2022-09-07T15:22:49.532Z,27.19
2022-09-07T15:27:55.147Z,27.36
2022-09-07T15:32:58.382Z,27.33
2022-09-07T15:38:02.773Z,27.19
2022-09-07T15:43:19.994Z,27.12
2022-09-07T15:48:25.694Z,27.04
2022-09-07T15:58:57.268Z,27.00
2022-09-07T16:04:01.392Z,27.03
2022-09-07T16:09:07.325Z,26.95
2022-09-07T16:14:12.417Z,26.63
2022-09-07T16:19:20.061Z,26.61
2022-09-07T16:24:23.362Z,26.66
2022-09-07T16:29:28.001Z,26.68
2022-09-07T16:34:30.876Z,26.62
2022-09-07T16:39:33.924Z,26.65
2022-09-07T16:44:38.253Z,26.62
2022-09-07T16:49:41.541Z,26.64
2022-09-07T16:54:44.572Z,26.65
2022-09-07T16:59:49.220Z,26.64
2022-09-07T17:04:52.182Z,26.62
2022-09-07T17:09:55.559Z,26.48
2022-09-07T17:14:59.805Z,26.30
2022-09-07T17:20:03.876Z,26.09
2022-09-07T17:25:07.828Z,25.87
2022-09-07T17:30:13.658Z,25.74
2022-09-07T17:35:16.742Z,25.62
2022-09-07T17:40:19.955Z,25.51
2022-09-07T17:45:24.306Z,25.38
2022-09-07T17:50:27.290Z,25.18
2022-09-07T17:55:31.659Z,24.94
2022-09-07T18:00:36.625Z,24.67
2022-09-07T18:05:39.755Z,24.46
2022-09-07T18:16:15.146Z,24.02
2022-09-07T18:21:21.137Z,23.77
2022-09-07T18:26:24.971Z,23.54
2022-09-07T18:31:30.226Z,23.37
2022-09-07T18:36:34.091Z,23.15
2022-09-07T18:41:40.669Z,23.01
2022-09-07T18:46:45.254Z,22.87
2022-09-07T18:57:11.650Z,22.50
2022-09-07T19:02:16.136Z,22.38
2022-09-07T19:07:20.371Z,22.23
2022-09-07T19:12:24.355Z,22.15
2022-09-07T19:17:28.913Z,22.00
2022-09-07T19:22:32.146Z,21.86
2022-09-07T19:27:37.944Z,21.85
2022-09-07T19:32:42.229Z,21.88
2022-09-07T19:37:45.134Z,21.77
2022-09-07T19:42:48.068Z,21.70
2022-09-07T19:47:52.539Z,21.62
2022-09-07T19:52:55.432Z,21.60
2022-09-07T19:57:58.862Z,21.57
2022-09-07T20:03:03.257Z,21.47
2022-09-07T20:08:06.796Z,21.47
2022-09-07T20:13:10.171Z,21.44
2022-09-07T20:18:14.418Z,21.42
2022-09-07T20:23:17.566Z,21.34
2022-09-07T20:28:20.525Z,21.16
2022-09-07T20:33:25.099Z,21.06
2022-09-07T20:38:28.034Z,21.01
2022-09-07T20:43:31.207Z,20.95
2022-09-07T20:48:37.102Z,20.89
2022-09-07T20:53:40.949Z,20.78
2022-09-07T20:58:44.847Z,20.68
2022-09-07T21:03:51.046Z,20.58
2022-09-07T21:08:54.601Z,20.47
2022-09-07T21:13:59.354Z,20.36
2022-09-07T21:19:05.293Z,20.31
2022-09-07T21:24:15.478Z,20.29
2022-09-07T21:29:20.581Z,20.28
2022-09-07T21:34:25.315Z,20.29
2022-09-07T21:39:28.276Z,20.29
2022-09-07T21:44:31.301Z,20.23
2022-09-07T21:49:35.606Z,20.15
2022-09-07T21:54:39.174Z,20.08
2022-09-07T21:59:42.403Z,20.09
2022-09-07T22:04:46.719Z,20.14
2022-09-07T22:09:49.596Z,20.17
2022-09-07T22:14:52.470Z,20.19
2022-09-07T22:19:56.788Z,20.16
2022-09-07T22:24:59.675Z,20.16
2022-09-07T22:30:02.583Z,20.15
2022-09-07T22:35:08.129Z,20.18
2022-09-07T22:40:14.811Z,20.09
2022-09-07T22:45:17.971Z,20.18
2022-09-07T22:50:22.257Z,20.19
2022-09-07T22:55:25.143Z,20.15
2022-09-07T23:00:28.131Z,20.16
2022-09-07T23:05:37.580Z,20.19
2022-09-07T23:10:40.492Z,20.24
2022-09-07T23:15:44.048Z,20.25
2022-09-07T23:20:48.427Z,20.20
2022-09-07T23:25:51.309Z,20.13
2022-09-07T23:30:54.808Z,19.97
2022-09-07T23:36:01.039Z,20.01
2022-09-07T23:41:04.336Z,19.95
2022-09-07T23:46:07.652Z,20.00
2022-09-07T23:51:11.969Z,20.07
2022-09-07T23:56:15.079Z,20.10
